sensor_id;sensor_type;location;lat;lon;timestamp;P1;durP1;ratioP1;P2;durP2;ratioP2
22632;SDS011;11483;55.828;37.488;2023-05-21T00:01:12;10.95;;;5.80;;
22632;SDS011;11483;55.828;37.488;2023-05-21T00:03:41;12.88;;;5.93;;
22632;SDS011;11483;55.828;37.488;2023-05-21T00:06:10;9.38;;;5.50;;
22632;SDS011;11483;55.828;37.488;2023-05-21T00:08:37;15.02;;;5.15;;
22632;SDS011;11483;55.828;37.488;2023-05-21T00:11:04;9.55;;;5.72;;
22632;SDS011;11483;55.828;37.488;2023-05-21T00:13:30;9.85;;;5.20;;
22632;SDS011;11483;55.828;37.488;2023-05-21T00:15:56;10.85;;;5.05;;
22632;SDS011;11483;55.828;37.488;2023-05-21T00:18:22;11.75;;;4.68;;
22632;SDS011;11483;55.828;37.488;2023-05-21T00:20:49;7.43;;;5.05;;
22632;SDS011;11483;55.828;37.488;2023-05-21T00:23:15;14.27;;;5.30;;
22632;SDS011;11483;55.828;37.488;2023-05-21T00:25:43;9.10;;;4.88;;
22632;SDS011;11483;55.828;37.488;2023-05-21T00:28:09;7.55;;;4.90;;
22632;SDS011;11483;55.828;37.488;2023-05-21T00:30:35;8.30;;;4.80;;
22632;SDS011;11483;55.828;37.488;2023-05-21T00:33:01;9.98;;;5.50;;
22632;SDS011;11483;55.828;37.488;2023-05-21T00:35:28;12.40;;;5.50;;
22632;SDS011;11483;55.828;37.488;2023-05-21T00:37:54;10.77;;;6.05;;
22632;SDS011;11483;55.828;37.488;2023-05-21T00:40:20;9.05;;;5.30;;
22632;SDS011;11483;55.828;37.488;2023-05-21T00:42:46;9.32;;;5.32;;
22632;SDS011;11483;55.828;37.488;2023-05-21T00:45:13;8.80;;;5.32;;
22632;SDS011;11483;55.828;37.488;2023-05-21T00:47:39;8.73;;;5.00;;
22632;SDS011;11483;55.828;37.488;2023-05-21T00:50:07;6.50;;;4.57;;
22632;SDS011;11483;55.828;37.488;2023-05-21T00:52:34;7.35;;;5.18;;
22632;SDS011;11483;55.828;37.488;2023-05-21T00:55:06;9.68;;;4.93;;
22632;SDS011;11483;55.828;37.488;2023-05-21T00:57:34;7.63;;;5.20;;
22632;SDS011;11483;55.828;37.488;2023-05-21T01:00:01;10.90;;;5.95;;
22632;SDS011;11483;55.828;37.488;2023-05-21T01:02:29;21.52;;;7.20;;
22632;SDS011;11483;55.828;37.488;2023-05-21T01:04:58;12.00;;;6.35;;
22632;SDS011;11483;55.828;37.488;2023-05-21T01:07:24;7.60;;;5.50;;
22632;SDS011;11483;55.828;37.488;2023-05-21T01:09:50;14.75;;;5.97;;
22632;SDS011;11483;55.828;37.488;2023-05-21T01:12:18;11.02;;;6.65;;
22632;SDS011;11483;55.828;37.488;2023-05-21T01:14:45;9.43;;;5.88;;
22632;SDS011;11483;55.828;37.488;2023-05-21T01:17:11;12.60;;;6.50;;
22632;SDS011;11483;55.828;37.488;2023-05-21T01:19:38;14.80;;;5.72;;
22632;SDS011;11483;55.828;37.488;2023-05-21T01:22:04;8.50;;;5.72;;
22632;SDS011;11483;55.828;37.488;2023-05-21T01:24:31;16.90;;;6.35;;
22632;SDS011;11483;55.828;37.488;2023-05-21T01:26:59;12.73;;;6.40;;
22632;SDS011;11483;55.828;37.488;2023-05-21T01:29:25;12.20;;;6.80;;
22632;SDS011;11483;55.828;37.488;2023-05-21T01:31:54;13.77;;;6.90;;
22632;SDS011;11483;55.828;37.488;2023-05-21T01:34:50;10.13;;;5.55;;
22632;SDS011;11483;55.828;37.488;2023-05-21T01:37:31;12.63;;;6.20;;
22632;SDS011;11483;55.828;37.488;2023-05-21T01:40:13;10.32;;;6.03;;
22632;SDS011;11483;55.828;37.488;2023-05-21T01:42:43;8.75;;;5.72;;
22632;SDS011;11483;55.828;37.488;2023-05-21T01:45:11;9.43;;;5.72;;
22632;SDS011;11483;55.828;37.488;2023-05-21T01:47:40;12.85;;;6.10;;
22632;SDS011;11483;55.828;37.488;2023-05-21T01:50:09;11.68;;;6.32;;
22632;SDS011;11483;55.828;37.488;2023-05-21T01:52:35;8.65;;;6.03;;
22632;SDS011;11483;55.828;37.488;2023-05-21T01:55:01;11.85;;;6.57;;
22632;SDS011;11483;55.828;37.488;2023-05-21T01:57:27;14.77;;;6.68;;
22632;SDS011;11483;55.828;37.488;2023-05-21T01:59:53;11.15;;;6.57;;
22632;SDS011;11483;55.828;37.488;2023-05-21T02:02:21;14.77;;;6.88;;
22632;SDS011;11483;55.828;37.488;2023-05-21T02:04:47;20.15;;;7.40;;
22632;SDS011;11483;55.828;37.488;2023-05-21T02:07:14;15.32;;;6.22;;
22632;SDS011;11483;55.828;37.488;2023-05-21T02:09:40;17.15;;;6.78;;
22632;SDS011;11483;55.828;37.488;2023-05-21T02:12:06;15.63;;;7.10;;
22632;SDS011;11483;55.828;37.488;2023-05-21T02:14:32;18.83;;;7.05;;
22632;SDS011;11483;55.828;37.488;2023-05-21T02:16:58;30.42;;;6.65;;
22632;SDS011;11483;55.828;37.488;2023-05-21T02:19:25;13.90;;;6.95;;
22632;SDS011;11483;55.828;37.488;2023-05-21T02:21:51;19.38;;;9.23;;
22632;SDS011;11483;55.828;37.488;2023-05-21T02:24:17;21.07;;;9.83;;
22632;SDS011;11483;55.828;37.488;2023-05-21T02:26:43;24.15;;;9.43;;
22632;SDS011;11483;55.828;37.488;2023-05-21T02:29:09;40.45;;;9.85;;
22632;SDS011;11483;55.828;37.488;2023-05-21T02:31:35;17.20;;;9.52;;
22632;SDS011;11483;55.828;37.488;2023-05-21T02:34:01;30.90;;;10.13;;
22632;SDS011;11483;55.828;37.488;2023-05-21T02:36:26;72.47;;;11.60;;
22632;SDS011;11483;55.828;37.488;2023-05-21T02:38:53;17.58;;;9.48;;
22632;SDS011;11483;55.828;37.488;2023-05-21T02:41:19;17.23;;;9.15;;
22632;SDS011;11483;55.828;37.488;2023-05-21T02:43:45;17.57;;;9.13;;
22632;SDS011;11483;55.828;37.488;2023-05-21T02:46:11;16.63;;;9.55;;
22632;SDS011;11483;55.828;37.488;2023-05-21T02:48:37;19.55;;;10.10;;
22632;SDS011;11483;55.828;37.488;2023-05-21T02:51:03;19.27;;;9.38;;
22632;SDS011;11483;55.828;37.488;2023-05-21T02:53:29;17.83;;;9.43;;
22632;SDS011;11483;55.828;37.488;2023-05-21T02:55:55;15.57;;;8.50;;
22632;SDS011;11483;55.828;37.488;2023-05-21T02:58:21;15.88;;;8.50;;
22632;SDS011;11483;55.828;37.488;2023-05-21T03:00:49;23.23;;;9.80;;
22632;SDS011;11483;55.828;37.488;2023-05-21T03:03:16;19.60;;;9.68;;
22632;SDS011;11483;55.828;37.488;2023-05-21T03:05:42;23.33;;;9.50;;
22632;SDS011;11483;55.828;37.488;2023-05-21T03:08:09;21.02;;;9.18;;
22632;SDS011;11483;55.828;37.488;2023-05-21T03:10:35;18.38;;;9.02;;
22632;SDS011;11483;55.828;37.488;2023-05-21T03:13:01;21.45;;;8.75;;
22632;SDS011;11483;55.828;37.488;2023-05-21T03:15:29;16.83;;;9.05;;
22632;SDS011;11483;55.828;37.488;2023-05-21T03:17:57;15.90;;;8.95;;
22632;SDS011;11483;55.828;37.488;2023-05-21T03:20:23;19.85;;;9.25;;
22632;SDS011;11483;55.828;37.488;2023-05-21T03:22:49;21.95;;;10.05;;
22632;SDS011;11483;55.828;37.488;2023-05-21T03:25:16;19.08;;;9.65;;
22632;SDS011;11483;55.828;37.488;2023-05-21T03:27:42;16.60;;;8.52;;
22632;SDS011;11483;55.828;37.488;2023-05-21T03:30:08;21.08;;;9.10;;
22632;SDS011;11483;55.828;37.488;2023-05-21T03:32:34;81.85;;;11.45;;
22632;SDS011;11483;55.828;37.488;2023-05-21T03:35:02;17.58;;;9.15;;
22632;SDS011;11483;55.828;37.488;2023-05-21T03:37:29;15.75;;;8.25;;
22632;SDS011;11483;55.828;37.488;2023-05-21T03:39:55;21.95;;;8.98;;
22632;SDS011;11483;55.828;37.488;2023-05-21T03:42:20;15.45;;;9.35;;
22632;SDS011;11483;55.828;37.488;2023-05-21T03:44:46;15.38;;;9.48;;
22632;SDS011;11483;55.828;37.488;2023-05-21T03:47:12;23.58;;;10.27;;
22632;SDS011;11483;55.828;37.488;2023-05-21T03:49:38;20.45;;;9.38;;
22632;SDS011;11483;55.828;37.488;2023-05-21T03:52:04;19.33;;;10.07;;
22632;SDS011;11483;55.828;37.488;2023-05-21T03:54:30;22.92;;;9.38;;
22632;SDS011;11483;55.828;37.488;2023-05-21T03:56:55;20.55;;;9.63;;
22632;SDS011;11483;55.828;37.488;2023-05-21T03:59:21;15.68;;;9.13;;
22632;SDS011;11483;55.828;37.488;2023-05-21T04:01:47;18.05;;;9.55;;
22632;SDS011;11483;55.828;37.488;2023-05-21T04:04:13;19.17;;;9.82;;
22632;SDS011;11483;55.828;37.488;2023-05-21T04:06:39;20.40;;;9.70;;
22632;SDS011;11483;55.828;37.488;2023-05-21T04:09:06;18.92;;;9.43;;
22632;SDS011;11483;55.828;37.488;2023-05-21T06:42:41;6.07;;;4.00;;
22632;SDS011;11483;55.828;37.488;2023-05-21T06:45:06;7.15;;;3.95;;
22632;SDS011;11483;55.828;37.488;2023-05-21T06:47:33;8.05;;;3.85;;
22632;SDS011;11483;55.828;37.488;2023-05-21T06:49:58;5.22;;;3.70;;
22632;SDS011;11483;55.828;37.488;2023-05-21T06:52:24;10.88;;;3.33;;
22632;SDS011;11483;55.828;37.488;2023-05-21T06:54:51;5.47;;;3.53;;
22632;SDS011;11483;55.828;37.488;2023-05-21T06:59:42;4.25;;;3.00;;
22632;SDS011;11483;55.828;37.488;2023-05-21T07:02:08;6.35;;;3.38;;
22632;SDS011;11483;55.828;37.488;2023-05-21T07:04:34;4.43;;;3.47;;
22632;SDS011;11483;55.828;37.488;2023-05-21T07:07:00;7.57;;;3.55;;
22632;SDS011;11483;55.828;37.488;2023-05-21T07:09:29;5.20;;;3.03;;
22632;SDS011;11483;55.828;37.488;2023-05-21T07:11:55;10.68;;;3.90;;
22632;SDS011;11483;55.828;37.488;2023-05-21T07:14:21;5.45;;;3.50;;
22632;SDS011;11483;55.828;37.488;2023-05-21T07:16:47;6.07;;;3.70;;
22632;SDS011;11483;55.828;37.488;2023-05-21T07:19:13;7.03;;;3.45;;
22632;SDS011;11483;55.828;37.488;2023-05-21T07:21:39;4.78;;;2.88;;
22632;SDS011;11483;55.828;37.488;2023-05-21T07:24:05;10.52;;;3.38;;
22632;SDS011;11483;55.828;37.488;2023-05-21T07:26:31;8.68;;;3.55;;
22632;SDS011;11483;55.828;37.488;2023-05-21T07:28:57;7.13;;;2.92;;
22632;SDS011;11483;55.828;37.488;2023-05-21T07:31:23;11.15;;;3.00;;
22632;SDS011;11483;55.828;37.488;2023-05-21T07:33:49;3.65;;;3.05;;
22632;SDS011;11483;55.828;37.488;2023-05-21T07:36:15;6.97;;;3.30;;
22632;SDS011;11483;55.828;37.488;2023-05-21T07:38:42;8.02;;;3.30;;
22632;SDS011;11483;55.828;37.488;2023-05-21T07:41:08;5.65;;;3.20;;
22632;SDS011;11483;55.828;37.488;2023-05-21T07:43:35;9.05;;;3.40;;
22632;SDS011;11483;55.828;37.488;2023-05-21T07:46:01;3.92;;;2.83;;
22632;SDS011;11483;55.828;37.488;2023-05-21T07:48:27;7.22;;;3.33;;
22632;SDS011;11483;55.828;37.488;2023-05-21T07:50:52;8.30;;;3.22;;
22632;SDS011;11483;55.828;37.488;2023-05-21T07:53:18;5.03;;;3.38;;
22632;SDS011;11483;55.828;37.488;2023-05-21T07:55:45;3.75;;;3.13;;
22632;SDS011;11483;55.828;37.488;2023-05-21T07:58:14;3.88;;;3.17;;
22632;SDS011;11483;55.828;37.488;2023-05-21T08:00:44;9.82;;;3.20;;
22632;SDS011;11483;55.828;37.488;2023-05-21T08:03:14;8.35;;;3.47;;
22632;SDS011;11483;55.828;37.488;2023-05-21T08:05:45;7.13;;;3.33;;
22632;SDS011;11483;55.828;37.488;2023-05-21T08:08:18;10.32;;;3.42;;
22632;SDS011;11483;55.828;37.488;2023-05-21T08:13:10;11.95;;;4.13;;
22632;SDS011;11483;55.828;37.488;2023-05-21T08:15:37;7.35;;;3.20;;
22632;SDS011;11483;55.828;37.488;2023-05-21T08:18:03;5.22;;;3.30;;
22632;SDS011;11483;55.828;37.488;2023-05-21T08:20:30;8.27;;;3.33;;
22632;SDS011;11483;55.828;37.488;2023-05-21T08:22:57;7.43;;;3.85;;
22632;SDS011;11483;55.828;37.488;2023-05-21T08:25:24;14.63;;;3.75;;
22632;SDS011;11483;55.828;37.488;2023-05-21T08:27:50;8.32;;;3.70;;
22632;SDS011;11483;55.828;37.488;2023-05-21T08:30:16;7.57;;;3.38;;
22632;SDS011;11483;55.828;37.488;2023-05-21T08:32:42;7.90;;;3.50;;
22632;SDS011;11483;55.828;37.488;2023-05-21T08:35:08;6.70;;;3.60;;
22632;SDS011;11483;55.828;37.488;2023-05-21T08:37:34;5.68;;;3.40;;
22632;SDS011;11483;55.828;37.488;2023-05-21T08:47:30;6.10;;;3.23;;
22632;SDS011;11483;55.828;37.488;2023-05-21T08:49:59;8.35;;;3.30;;
22632;SDS011;11483;55.828;37.488;2023-05-21T08:52:25;6.32;;;3.15;;
22632;SDS011;11483;55.828;37.488;2023-05-21T08:54:51;7.83;;;3.07;;
22632;SDS011;11483;55.828;37.488;2023-05-21T08:57:18;5.13;;;2.95;;
22632;SDS011;11483;55.828;37.488;2023-05-21T08:59:47;3.83;;;2.67;;
22632;SDS011;11483;55.828;37.488;2023-05-21T09:02:13;6.30;;;3.17;;
22632;SDS011;11483;55.828;37.488;2023-05-21T09:04:43;7.80;;;3.03;;
22632;SDS011;11483;55.828;37.488;2023-05-21T09:07:13;4.60;;;2.80;;
22632;SDS011;11483;55.828;37.488;2023-05-21T09:09:44;3.47;;;2.50;;
22632;SDS011;11483;55.828;37.488;2023-05-21T09:12:13;9.07;;;3.20;;
22632;SDS011;11483;55.828;37.488;2023-05-21T09:14:39;4.03;;;2.90;;
22632;SDS011;11483;55.828;37.488;2023-05-21T09:17:07;4.75;;;2.85;;
22632;SDS011;11483;55.828;37.488;2023-05-21T09:31:50;6.25;;;3.10;;
22632;SDS011;11483;55.828;37.488;2023-05-21T09:34:16;4.78;;;2.80;;
22632;SDS011;11483;55.828;37.488;2023-05-21T09:36:42;4.18;;;3.10;;
22632;SDS011;11483;55.828;37.488;2023-05-21T09:39:08;3.67;;;2.28;;
22632;SDS011;11483;55.828;37.488;2023-05-21T09:41:36;3.53;;;2.80;;
22632;SDS011;11483;55.828;37.488;2023-05-21T09:44:02;6.93;;;3.40;;
22632;SDS011;11483;55.828;37.488;2023-05-21T09:46:38;6.63;;;2.88;;
22632;SDS011;11483;55.828;37.488;2023-05-21T09:49:05;6.20;;;2.55;;
22632;SDS011;11483;55.828;37.488;2023-05-21T09:51:31;5.07;;;2.97;;
22632;SDS011;11483;55.828;37.488;2023-05-21T09:56:23;5.45;;;3.42;;
22632;SDS011;11483;55.828;37.488;2023-05-21T09:58:55;4.15;;;3.03;;
22632;SDS011;11483;55.828;37.488;2023-05-21T10:11:13;7.82;;;2.88;;
22632;SDS011;11483;55.828;37.488;2023-05-21T10:18:35;7.88;;;2.80;;
22632;SDS011;11483;55.828;37.488;2023-05-21T10:21:03;11.05;;;2.47;;
22632;SDS011;11483;55.828;37.488;2023-05-21T10:23:31;3.75;;;2.60;;
22632;SDS011;11483;55.828;37.488;2023-05-21T10:28:24;4.13;;;2.95;;
22632;SDS011;11483;55.828;37.488;2023-05-21T10:30:52;5.18;;;2.90;;
22632;SDS011;11483;55.828;37.488;2023-05-21T10:33:18;4.35;;;3.35;;
22632;SDS011;11483;55.828;37.488;2023-05-21T10:35:46;5.53;;;2.97;;
22632;SDS011;11483;55.828;37.488;2023-05-21T10:38:13;6.10;;;2.60;;
22632;SDS011;11483;55.828;37.488;2023-05-21T10:40:43;3.78;;;3.15;;
22632;SDS011;11483;55.828;37.488;2023-05-21T10:46:02;6.65;;;2.58;;
22632;SDS011;11483;55.828;37.488;2023-05-21T10:54:46;4.03;;;2.80;;
22632;SDS011;11483;55.828;37.488;2023-05-21T10:57:31;3.67;;;2.47;;
22632;SDS011;11483;55.828;37.488;2023-05-21T10:59:59;4.32;;;2.90;;
22632;SDS011;11483;55.828;37.488;2023-05-21T11:02:25;8.27;;;3.47;;
22632;SDS011;11483;55.828;37.488;2023-05-21T11:04:59;4.85;;;2.75;;
22632;SDS011;11483;55.828;37.488;2023-05-21T11:10:36;16.80;;;3.53;;
22632;SDS011;11483;55.828;37.488;2023-05-21T11:13:10;7.00;;;3.42;;
22632;SDS011;11483;55.828;37.488;2023-05-21T11:21:08;3.67;;;3.20;;
22632;SDS011;11483;55.828;37.488;2023-05-21T11:29:04;5.22;;;3.67;;
22632;SDS011;11483;55.828;37.488;2023-05-21T11:31:31;6.45;;;3.90;;
22632;SDS011;11483;55.828;37.488;2023-05-21T11:34:23;6.30;;;4.35;;
22632;SDS011;11483;55.828;37.488;2023-05-21T11:39:40;5.07;;;3.70;;
22632;SDS011;11483;55.828;37.488;2023-05-21T11:42:06;6.30;;;4.20;;
22632;SDS011;11483;55.828;37.488;2023-05-21T11:44:39;10.30;;;3.92;;
22632;SDS011;11483;55.828;37.488;2023-05-21T11:47:16;5.57;;;4.07;;
22632;SDS011;11483;55.828;37.488;2023-05-21T11:49:43;6.95;;;3.88;;
22632;SDS011;11483;55.828;37.488;2023-05-21T11:52:10;6.18;;;3.95;;
22632;SDS011;11483;55.828;37.488;2023-05-21T11:54:47;4.88;;;3.65;;
22632;SDS011;11483;55.828;37.488;2023-05-21T12:07:08;3.53;;;1.88;;
22632;SDS011;11483;55.828;37.488;2023-05-21T12:09:38;4.03;;;2.00;;
22632;SDS011;11483;55.828;37.488;2023-05-21T12:12:13;2.25;;;1.83;;
22632;SDS011;11483;55.828;37.488;2023-05-21T12:14:46;7.27;;;2.20;;
22632;SDS011;11483;55.828;37.488;2023-05-21T12:17:17;5.30;;;2.40;;
22632;SDS011;11483;55.828;37.488;2023-05-21T12:19:44;4.15;;;2.22;;
22632;SDS011;11483;55.828;37.488;2023-05-21T12:22:10;2.22;;;1.90;;
22632;SDS011;11483;55.828;37.488;2023-05-21T12:24:37;3.83;;;1.95;;
22632;SDS011;11483;55.828;37.488;2023-05-21T12:27:04;2.03;;;1.67;;
22632;SDS011;11483;55.828;37.488;2023-05-21T12:29:35;4.53;;;1.35;;
22632;SDS011;11483;55.828;37.488;2023-05-21T12:32:05;1.83;;;1.55;;
22632;SDS011;11483;55.828;37.488;2023-05-21T12:34:43;3.38;;;2.08;;
22632;SDS011;11483;55.828;37.488;2023-05-21T12:39:59;13.55;;;2.65;;
22632;SDS011;11483;55.828;37.488;2023-05-21T12:42:32;4.68;;;2.67;;
22632;SDS011;11483;55.828;37.488;2023-05-21T12:44:59;4.38;;;2.80;;
22632;SDS011;11483;55.828;37.488;2023-05-21T12:47:26;4.55;;;2.80;;
22632;SDS011;11483;55.828;37.488;2023-05-21T12:49:53;5.70;;;2.92;;
22632;SDS011;11483;55.828;37.488;2023-05-21T12:52:23;4.60;;;2.97;;
22632;SDS011;11483;55.828;37.488;2023-05-21T12:54:50;5.68;;;3.50;;
22632;SDS011;11483;55.828;37.488;2023-05-21T12:57:18;6.10;;;3.20;;
22632;SDS011;11483;55.828;37.488;2023-05-21T12:59:48;6.47;;;3.20;;
22632;SDS011;11483;55.828;37.488;2023-05-21T13:02:31;5.13;;;3.47;;
22632;SDS011;11483;55.828;37.488;2023-05-21T13:04:59;6.88;;;3.17;;
22632;SDS011;11483;55.828;37.488;2023-05-21T13:07:28;8.55;;;3.42;;
22632;SDS011;11483;55.828;37.488;2023-05-21T13:09:55;6.38;;;3.47;;
22632;SDS011;11483;55.828;37.488;2023-05-21T13:12:22;3.92;;;2.95;;
22632;SDS011;11483;55.828;37.488;2023-05-21T13:14:50;9.00;;;3.00;;
22632;SDS011;11483;55.828;37.488;2023-05-21T13:17:17;5.30;;;3.22;;
22632;SDS011;11483;55.828;37.488;2023-05-21T13:19:52;7.38;;;3.10;;
22632;SDS011;11483;55.828;37.488;2023-05-21T13:22:36;4.53;;;2.78;;
22632;SDS011;11483;55.828;37.488;2023-05-21T13:25:06;5.32;;;2.97;;
22632;SDS011;11483;55.828;37.488;2023-05-21T13:27:33;4.65;;;2.92;;
22632;SDS011;11483;55.828;37.488;2023-05-21T13:29:59;5.47;;;3.20;;
22632;SDS011;11483;55.828;37.488;2023-05-21T13:32:26;9.97;;;3.13;;
22632;SDS011;11483;55.828;37.488;2023-05-21T13:34:51;2.80;;;2.30;;
22632;SDS011;11483;55.828;37.488;2023-05-21T13:37:17;7.20;;;2.38;;
22632;SDS011;11483;55.828;37.488;2023-05-21T13:39:44;4.32;;;2.70;;
22632;SDS011;11483;55.828;37.488;2023-05-21T13:42:11;4.15;;;2.50;;
22632;SDS011;11483;55.828;37.488;2023-05-21T13:44:37;3.47;;;2.28;;
22632;SDS011;11483;55.828;37.488;2023-05-21T13:47:06;4.47;;;2.22;;
22632;SDS011;11483;55.828;37.488;2023-05-21T13:49:34;3.30;;;1.98;;
22632;SDS011;11483;55.828;37.488;2023-05-21T13:56:52;7.90;;;2.78;;
22632;SDS011;11483;55.828;37.488;2023-05-21T13:59:18;5.93;;;2.45;;
22632;SDS011;11483;55.828;37.488;2023-05-21T14:01:45;8.77;;;2.40;;
22632;SDS011;11483;55.828;37.488;2023-05-21T14:06:37;3.28;;;2.55;;
22632;SDS011;11483;55.828;37.488;2023-05-21T14:09:05;2.88;;;2.13;;
22632;SDS011;11483;55.828;37.488;2023-05-21T14:11:31;4.70;;;2.75;;
22632;SDS011;11483;55.828;37.488;2023-05-21T14:23:49;6.45;;;2.67;;
22632;SDS011;11483;55.828;37.488;2023-05-21T14:26:15;4.00;;;2.45;;
22632;SDS011;11483;55.828;37.488;2023-05-21T14:28:41;5.10;;;2.38;;
22632;SDS011;11483;55.828;37.488;2023-05-21T14:31:07;7.57;;;3.38;;
22632;SDS011;11483;55.828;37.488;2023-05-21T14:38:29;6.32;;;3.03;;
22632;SDS011;11483;55.828;37.488;2023-05-21T14:43:21;8.80;;;2.55;;
22632;SDS011;11483;55.828;37.488;2023-05-21T14:45:50;2.40;;;2.10;;
22632;SDS011;11483;55.828;37.488;2023-05-21T14:48:16;3.10;;;2.10;;
22632;SDS011;11483;55.828;37.488;2023-05-21T14:50:46;5.43;;;2.33;;
22632;SDS011;11483;55.828;37.488;2023-05-21T14:53:15;5.72;;;2.40;;
22632;SDS011;11483;55.828;37.488;2023-05-21T14:55:42;4.32;;;2.42;;
22632;SDS011;11483;55.828;37.488;2023-05-21T14:58:08;4.80;;;2.75;;
22632;SDS011;11483;55.828;37.488;2023-05-21T15:00:34;5.85;;;2.90;;
22632;SDS011;11483;55.828;37.488;2023-05-21T15:03:02;7.80;;;3.33;;
22632;SDS011;11483;55.828;37.488;2023-05-21T15:05:29;3.20;;;2.42;;
22632;SDS011;11483;55.828;37.488;2023-05-21T15:07:55;3.30;;;2.30;;
22632;SDS011;11483;55.828;37.488;2023-05-21T15:10:22;4.60;;;2.60;;
22632;SDS011;11483;55.828;37.488;2023-05-21T15:12:49;3.78;;;2.15;;
22632;SDS011;11483;55.828;37.488;2023-05-21T15:17:42;6.35;;;3.10;;
22632;SDS011;11483;55.828;37.488;2023-05-21T15:20:08;5.30;;;3.20;;
22632;SDS011;11483;55.828;37.488;2023-05-21T15:22:34;6.38;;;2.90;;
22632;SDS011;11483;55.828;37.488;2023-05-21T15:25:00;5.45;;;3.00;;
22632;SDS011;11483;55.828;37.488;2023-05-21T15:27:27;9.48;;;2.90;;
22632;SDS011;11483;55.828;37.488;2023-05-21T15:29:53;6.55;;;2.55;;
22632;SDS011;11483;55.828;37.488;2023-05-21T15:39:44;4.18;;;2.47;;
22632;SDS011;11483;55.828;37.488;2023-05-21T15:42:11;7.95;;;2.75;;
22632;SDS011;11483;55.828;37.488;2023-05-21T15:44:37;5.43;;;2.75;;
22632;SDS011;11483;55.828;37.488;2023-05-21T15:47:04;7.97;;;3.50;;
22632;SDS011;11483;55.828;37.488;2023-05-21T15:49:30;6.82;;;3.17;;
22632;SDS011;11483;55.828;37.488;2023-05-21T15:51:56;7.65;;;3.50;;
22632;SDS011;11483;55.828;37.488;2023-05-21T15:54:24;5.00;;;2.92;;
22632;SDS011;11483;55.828;37.488;2023-05-21T15:56:50;6.28;;;2.72;;
22632;SDS011;11483;55.828;37.488;2023-05-21T15:59:16;3.53;;;2.80;;
22632;SDS011;11483;55.828;37.488;2023-05-21T16:01:42;6.30;;;3.30;;
22632;SDS011;11483;55.828;37.488;2023-05-21T16:04:08;5.30;;;2.92;;
22632;SDS011;11483;55.828;37.488;2023-05-21T16:06:34;10.07;;;3.10;;
22632;SDS011;11483;55.828;37.488;2023-05-21T16:09:00;5.68;;;3.65;;
22632;SDS011;11483;55.828;37.488;2023-05-21T16:11:26;6.10;;;3.55;;
22632;SDS011;11483;55.828;37.488;2023-05-21T16:13:52;4.95;;;3.38;;
22632;SDS011;11483;55.828;37.488;2023-05-21T16:16:18;3.65;;;2.85;;
22632;SDS011;11483;55.828;37.488;2023-05-21T16:18:45;5.53;;;3.05;;
22632;SDS011;11483;55.828;37.488;2023-05-21T16:21:11;8.23;;;3.17;;
22632;SDS011;11483;55.828;37.488;2023-05-21T16:23:37;5.82;;;2.70;;
22632;SDS011;11483;55.828;37.488;2023-05-21T16:26:04;6.07;;;2.85;;
22632;SDS011;11483;55.828;37.488;2023-05-21T16:28:30;4.80;;;2.97;;
22632;SDS011;11483;55.828;37.488;2023-05-21T16:30:57;2.88;;;2.47;;
22632;SDS011;11483;55.828;37.488;2023-05-21T16:33:23;3.03;;;2.47;;
22632;SDS011;11483;55.828;37.488;2023-05-21T16:35:48;5.57;;;2.90;;
22632;SDS011;11483;55.828;37.488;2023-05-21T16:38:14;10.93;;;2.75;;
22632;SDS011;11483;55.828;37.488;2023-05-21T16:40:40;13.27;;;3.10;;
22632;SDS011;11483;55.828;37.488;2023-05-21T16:43:06;5.90;;;3.00;;
22632;SDS011;11483;55.828;37.488;2023-05-21T16:45:39;9.00;;;2.65;;
22632;SDS011;11483;55.828;37.488;2023-05-21T16:48:06;3.95;;;2.60;;
22632;SDS011;11483;55.828;37.488;2023-05-21T16:50:33;8.52;;;3.35;;
22632;SDS011;11483;55.828;37.488;2023-05-21T16:52:59;4.18;;;2.80;;
22632;SDS011;11483;55.828;37.488;2023-05-21T16:55:33;5.57;;;3.00;;
22632;SDS011;11483;55.828;37.488;2023-05-21T16:58:00;8.90;;;2.90;;
22632;SDS011;11483;55.828;37.488;2023-05-21T17:00:27;10.35;;;2.85;;
22632;SDS011;11483;55.828;37.488;2023-05-21T17:02:52;9.40;;;2.78;;
22632;SDS011;11483;55.828;37.488;2023-05-21T17:05:19;6.78;;;2.60;;
22632;SDS011;11483;55.828;37.488;2023-05-21T17:07:45;8.98;;;2.60;;
22632;SDS011;11483;55.828;37.488;2023-05-21T17:10:11;5.57;;;2.47;;
22632;SDS011;11483;55.828;37.488;2023-05-21T17:12:37;4.28;;;2.78;;
22632;SDS011;11483;55.828;37.488;2023-05-21T17:15:03;9.73;;;3.38;;
22632;SDS011;11483;55.828;37.488;2023-05-21T17:17:30;8.98;;;3.10;;
22632;SDS011;11483;55.828;37.488;2023-05-21T17:19:56;3.67;;;2.85;;
22632;SDS011;11483;55.828;37.488;2023-05-21T17:22:22;7.32;;;2.75;;
22632;SDS011;11483;55.828;37.488;2023-05-21T17:24:47;8.88;;;2.78;;
22632;SDS011;11483;55.828;37.488;2023-05-21T17:27:13;5.65;;;2.72;;
22632;SDS011;11483;55.828;37.488;2023-05-21T17:29:40;9.80;;;2.67;;
22632;SDS011;11483;55.828;37.488;2023-05-21T17:32:06;6.25;;;2.60;;
22632;SDS011;11483;55.828;37.488;2023-05-21T17:34:32;4.53;;;2.88;;
22632;SDS011;11483;55.828;37.488;2023-05-21T17:36:58;7.82;;;3.80;;
22632;SDS011;11483;55.828;37.488;2023-05-21T17:39:24;8.07;;;3.17;;
22632;SDS011;11483;55.828;37.488;2023-05-21T17:41:50;9.77;;;3.90;;
22632;SDS011;11483;55.828;37.488;2023-05-21T17:44:17;4.95;;;3.22;;
22632;SDS011;11483;55.828;37.488;2023-05-21T17:46:44;8.57;;;3.53;;
22632;SDS011;11483;55.828;37.488;2023-05-21T17:49:10;6.78;;;3.33;;
22632;SDS011;11483;55.828;37.488;2023-05-21T17:51:37;5.85;;;3.10;;
22632;SDS011;11483;55.828;37.488;2023-05-21T17:54:03;5.43;;;3.13;;
22632;SDS011;11483;55.828;37.488;2023-05-21T17:56:29;11.10;;;3.08;;
22632;SDS011;11483;55.828;37.488;2023-05-21T17:58:58;11.10;;;3.08;;
22632;SDS011;11483;55.828;37.488;2023-05-21T18:01:24;6.72;;;3.03;;
22632;SDS011;11483;55.828;37.488;2023-05-21T18:03:50;8.40;;;2.95;;
22632;SDS011;11483;55.828;37.488;2023-05-21T18:06:15;7.07;;;3.35;;
22632;SDS011;11483;55.828;37.488;2023-05-21T18:08:41;10.13;;;3.22;;
22632;SDS011;11483;55.828;37.488;2023-05-21T18:11:07;7.70;;;3.20;;
22632;SDS011;11483;55.828;37.488;2023-05-21T18:13:33;9.57;;;3.28;;
22632;SDS011;11483;55.828;37.488;2023-05-21T18:15:59;9.73;;;3.72;;
22632;SDS011;11483;55.828;37.488;2023-05-21T18:18:25;6.97;;;3.28;;
22632;SDS011;11483;55.828;37.488;2023-05-21T18:20:51;6.50;;;3.25;;
22632;SDS011;11483;55.828;37.488;2023-05-21T18:23:17;7.38;;;3.35;;
22632;SDS011;11483;55.828;37.488;2023-05-21T18:25:43;7.20;;;2.83;;
22632;SDS011;11483;55.828;37.488;2023-05-21T18:28:09;9.52;;;2.97;;
22632;SDS011;11483;55.828;37.488;2023-05-21T18:30:35;6.95;;;3.25;;
22632;SDS011;11483;55.828;37.488;2023-05-21T18:33:01;6.50;;;2.72;;
22632;SDS011;11483;55.828;37.488;2023-05-21T18:35:26;7.03;;;3.22;;
22632;SDS011;11483;55.828;37.488;2023-05-21T18:37:55;14.38;;;3.28;;
22632;SDS011;11483;55.828;37.488;2023-05-21T18:40:21;7.25;;;3.60;;
22632;SDS011;11483;55.828;37.488;2023-05-21T18:42:49;6.60;;;2.97;;
22632;SDS011;11483;55.828;37.488;2023-05-21T18:45:15;5.40;;;2.90;;
22632;SDS011;11483;55.828;37.488;2023-05-21T18:47:41;10.18;;;3.58;;
22632;SDS011;11483;55.828;37.488;2023-05-21T18:50:10;11.30;;;3.60;;
22632;SDS011;11483;55.828;37.488;2023-05-21T18:52:37;14.05;;;3.30;;
22632;SDS011;11483;55.828;37.488;2023-05-21T18:55:03;11.13;;;4.03;;
22632;SDS011;11483;55.828;37.488;2023-05-21T18:57:30;15.38;;;4.47;;
22632;SDS011;11483;55.828;37.488;2023-05-21T18:59:58;9.55;;;3.50;;